createdAt,value
2018-09-21T00:00:35.712Z,0
2018-09-21T00:01:35.458Z,0
2018-09-21T00:02:35.446Z,0
2018-09-21T00:03:35.694Z,0
2018-09-21T00:04:35.694Z,0
2018-09-21T00:05:35.691Z,0
2018-09-21T00:06:35.793Z,0
2018-09-21T00:07:35.683Z,0
2018-09-21T00:08:35.423Z,0
2018-09-21T00:09:35.679Z,0
2018-09-21T00:10:35.417Z,0
2018-09-21T00:11:35.678Z,0
2018-09-21T00:12:35.149Z,0
2018-09-21T00:13:35.403Z,0
2018-09-21T00:14:35.658Z,0
2018-09-21T00:15:35.663Z,0
2018-09-21T00:16:35.648Z,0
2018-09-21T00:17:35.640Z,0
2018-09-21T00:18:35.380Z,0
2018-09-21T00:19:35.639Z,0
2018-09-21T00:20:35.632Z,0
2018-09-21T00:21:35.378Z,0
2018-09-21T00:22:35.372Z,0
2018-09-21T00:23:35.363Z,0
2018-09-21T00:24:35.368Z,0
2018-09-21T00:25:35.610Z,0
2018-09-21T00:26:35.350Z,0
2018-09-21T00:27:35.611Z,0
2018-09-21T00:28:35.605Z,0
2018-09-21T00:29:35.335Z,0
2018-09-21T00:30:35.593Z,0
2018-09-21T00:31:35.594Z,0
2018-09-21T00:32:35.329Z,0
2018-09-21T00:33:35.585Z,0
2018-09-21T00:34:35.576Z,0
2018-09-21T00:35:35.571Z,0
2018-09-21T00:36:35.564Z,0
2018-09-21T00:37:35.561Z,0
2018-09-21T00:38:35.554Z,0
2018-09-21T00:39:35.041Z,0
2018-09-21T00:40:35.298Z,0
2018-09-21T00:41:35.290Z,0
2018-09-21T00:42:35.548Z,0
2018-09-21T00:43:35.280Z,0
2018-09-21T00:44:35.527Z,0
2018-09-21T00:45:35.533Z,0
2018-09-21T00:46:35.272Z,0
2018-09-21T00:47:35.265Z,0
2018-09-21T00:48:35.514Z,0
2018-09-21T00:49:34.995Z,0
2018-09-21T00:50:35.517Z,0
2018-09-21T00:51:35.242Z,0
2018-09-21T00:52:35.497Z,0
2018-09-21T00:53:35.492Z,0
2018-09-21T00:54:35.232Z,0
2018-09-21T00:55:35.484Z,0
2018-09-21T00:56:35.222Z,0
2018-09-21T00:57:35.217Z,0
2018-09-21T00:58:35.212Z,0
2018-09-21T00:59:35.207Z,0
2018-09-21T01:00:34.953Z,0
2018-09-21T01:01:35.455Z,0
2018-09-21T01:02:34.680Z,0
2018-09-21T01:03:35.190Z,0
2018-09-21T01:04:35.447Z,0
2018-09-21T01:05:35.440Z,0
2018-09-21T01:06:35.188Z,0
2018-09-21T01:07:35.436Z,0
2018-09-21T01:08:35.180Z,0
2018-09-21T01:09:35.426Z,0
2018-09-21T01:10:35.427Z,0
2018-09-21T01:11:35.164Z,0
2018-09-21T01:12:35.149Z,0
2018-09-21T01:13:34.634Z,0
2018-09-21T01:14:35.142Z,0
2018-09-21T01:15:35.142Z,0
2018-09-21T01:16:35.390Z,0
2018-09-21T01:17:35.383Z,0
2018-09-21T01:18:35.383Z,0
2018-09-21T01:19:35.123Z,0
2018-09-21T01:20:35.117Z,0
2018-09-21T01:21:35.371Z,0
2018-09-21T01:22:34.861Z,0
2018-09-21T01:23:35.363Z,0
2018-09-21T01:24:35.366Z,0
2018-09-21T01:25:35.094Z,0
2018-09-21T01:26:35.094Z,0
2018-09-21T01:27:35.089Z,0
2018-09-21T01:28:35.336Z,0
2018-09-21T01:29:35.346Z,0
2018-09-21T01:30:35.080Z,0
2018-09-21T01:31:35.322Z,0
2018-09-21T01:32:35.071Z,0
2018-09-21T01:33:35.318Z,0
2018-09-21T01:34:35.361Z,0
2018-09-21T01:35:35.314Z,0
2018-09-21T01:36:35.077Z,0
2018-09-21T01:37:35.300Z,0
2018-09-21T01:38:35.297Z,0
2018-09-21T01:39:35.295Z,0
2018-09-21T01:40:35.036Z,0
2018-09-21T01:41:35.288Z,0
2018-09-21T01:42:35.021Z,0
2018-09-21T01:43:35.013Z,0
2018-09-21T01:44:34.756Z,0
2018-09-21T01:45:35.009Z,0
2018-09-21T01:46:34.750Z,0
2018-09-21T01:47:35.261Z,0
2018-09-21T01:48:34.995Z,0
2018-09-21T01:49:35.245Z,0
2018-09-21T01:50:35.248Z,0
2018-09-21T01:51:35.241Z,0
2018-09-21T01:52:35.241Z,0
2018-09-21T01:53:35.234Z,0
2018-09-21T01:54:34.713Z,0
2018-09-21T01:55:34.969Z,0
2018-09-21T01:56:34.702Z,0
2018-09-21T01:57:34.956Z,0
2018-09-21T01:58:34.953Z,0
2018-09-21T01:59:34.946Z,0
2018-09-21T02:00:34.947Z,0
2018-09-21T02:01:35.199Z,0
2018-09-21T02:02:34.676Z,0
2018-09-21T02:03:34.927Z,0
2018-09-21T02:04:34.925Z,0
2018-09-21T02:05:35.179Z,0
2018-09-21T02:06:35.173Z,0
2018-09-21T02:07:34.911Z,0
2018-09-21T02:08:34.905Z,0
2018-09-21T02:09:35.427Z,0
2018-09-21T02:10:35.166Z,0
2018-09-21T02:11:34.892Z,0
2018-09-21T02:12:35.151Z,0
2018-09-21T02:13:35.141Z,0
2018-09-21T02:14:34.887Z,0
2018-09-21T02:15:34.879Z,0
2018-09-21T02:16:35.127Z,0
2018-09-21T02:17:34.929Z,0
2018-09-21T02:18:35.133Z,0
2018-09-21T02:19:35.117Z,0
2018-09-21T02:20:35.120Z,0
2018-09-21T02:21:34.852Z,0
2018-09-21T02:22:34.844Z,0
2018-09-21T02:23:35.101Z,0
2018-09-21T02:24:35.105Z,0
2018-09-21T02:25:35.092Z,0
2018-09-21T02:26:34.572Z,0
2018-09-21T02:27:34.825Z,0
2018-09-21T02:28:35.075Z,0
2018-09-21T02:29:35.071Z,0
2018-09-21T02:30:35.080Z,0
2018-09-21T02:31:35.064Z,0
2018-09-21T02:32:35.057Z,0
2018-09-21T02:33:35.053Z,0
2018-09-21T02:34:34.534Z,0
2018-09-21T02:35:34.811Z,0
2018-09-21T02:36:35.047Z,0
2018-09-21T02:37:34.524Z,0
2018-09-21T02:38:35.025Z,0
2018-09-21T02:39:34.782Z,0
2018-09-21T02:40:35.032Z,0
2018-09-21T02:41:35.543Z,0
2018-09-21T02:42:34.499Z,0
2018-09-21T02:43:34.753Z,0
2018-09-21T02:44:35.022Z,0
2018-09-21T02:45:35.028Z,0
2018-09-21T02:46:34.997Z,0
2018-09-21T02:47:34.740Z,0
2018-09-21T02:48:35.080Z,0
2018-09-21T02:49:34.982Z,0
2018-09-21T02:50:34.720Z,0
2018-09-21T02:51:34.979Z,0
2018-09-21T02:52:34.973Z,0
2018-09-21T02:53:34.969Z,0
2018-09-21T02:54:34.967Z,0
2018-09-21T02:55:34.957Z,0
2018-09-21T02:56:34.950Z,0
2018-09-21T02:57:34.431Z,0
2018-09-21T02:58:34.941Z,0
2018-09-21T03:01:16.738Z,0
2018-09-21T03:01:26.370Z,0
2018-09-21T03:02:26.357Z,0
2018-09-21T03:03:26.103Z,0
2018-09-21T03:04:26.371Z,0
2018-09-21T03:05:26.367Z,0
2018-09-21T03:06:26.340Z,0
2018-09-21T03:07:26.329Z,0
2018-09-21T03:08:26.072Z,0
2018-09-21T03:09:26.335Z,0
2018-09-21T03:10:26.067Z,0
2018-09-21T03:11:26.321Z,0
2018-09-21T03:12:26.312Z,0
2018-09-21T03:13:25.797Z,0
2018-09-21T03:14:26.307Z,0
2018-09-21T03:15:26.047Z,0
2018-09-21T03:16:26.307Z,0
2018-09-21T03:17:26.027Z,0
2018-09-21T03:18:26.025Z,0
2018-09-21T03:19:26.290Z,0
2018-09-21T03:20:26.284Z,0
2018-09-21T03:21:26.039Z,0
2018-09-21T03:22:26.277Z,0
2018-09-21T03:23:26.256Z,0
2018-09-21T03:24:26.004Z,0
2018-09-21T03:25:26.009Z,0
2018-09-21T03:26:26.019Z,0
2018-09-21T03:27:26.253Z,0
2018-09-21T03:28:26.243Z,0
2018-09-21T03:29:25.982Z,0
2018-09-21T03:30:26.263Z,0
2018-09-21T03:31:26.233Z,0
2018-09-21T03:32:26.245Z,0
2018-09-21T03:33:26.224Z,0
2018-09-21T03:34:26.229Z,0
2018-09-21T03:35:26.519Z,0
2018-09-21T03:36:26.250Z,0
2018-09-21T03:37:26.211Z,0
2018-09-21T03:38:25.943Z,0
2018-09-21T03:39:26.202Z,0
2018-09-21T03:40:25.937Z,0
2018-09-21T03:41:25.927Z,0
2018-09-21T03:42:26.189Z,0
2018-09-21T03:43:26.174Z,0
2018-09-21T03:44:25.926Z,0
2018-09-21T03:45:26.167Z,0
2018-09-21T03:46:26.171Z,0
2018-09-21T03:47:26.169Z,0
2018-09-21T03:48:25.651Z,0
2018-09-21T03:49:26.156Z,0
2018-09-21T03:50:26.145Z,0
2018-09-21T03:51:26.149Z,0
2018-09-21T03:52:25.888Z,0
2018-09-21T03:53:25.872Z,0
2018-09-21T03:54:26.135Z,0
2018-09-21T03:55:25.873Z,0
2018-09-21T03:56:25.885Z,0
2018-09-21T03:57:26.123Z,0
2018-09-21T03:58:25.880Z,0
2018-09-21T03:59:26.118Z,0
2018-09-21T04:00:25.851Z,0
2018-09-21T04:01:26.104Z,0
2018-09-21T04:02:26.092Z,0
2018-09-21T04:03:26.095Z,0
2018-09-21T04:04:26.094Z,0
2018-09-21T04:05:26.081Z,0
2018-09-21T04:06:26.081Z,0
2018-09-21T04:07:26.072Z,0
2018-09-21T04:08:25.807Z,0
2018-09-21T04:09:26.063Z,0
2018-09-21T04:10:26.066Z,0
2018-09-21T04:11:26.063Z,0
2018-09-21T04:12:26.050Z,0
2018-09-21T04:13:25.789Z,0
2018-09-21T04:14:26.039Z,0
2018-09-21T04:15:25.777Z,0
2018-09-21T04:16:26.030Z,0
2018-09-21T04:17:26.027Z,0
2018-09-21T04:18:26.027Z,0
2018-09-21T04:19:25.767Z,0
2018-09-21T04:20:25.758Z,0
2018-09-21T04:21:26.015Z,0
2018-09-21T04:22:25.494Z,0
2018-09-21T04:23:26.013Z,0
2018-09-21T04:24:25.486Z,4
2018-09-21T04:25:25.742Z,0
2018-09-21T04:26:25.729Z,0
2018-09-21T04:27:25.735Z,4
2018-09-21T04:28:25.987Z,4
2018-09-21T04:29:25.724Z,4
2018-09-21T04:30:25.975Z,4
2018-09-21T04:31:25.962Z,4
2018-09-21T04:32:25.712Z,8
2018-09-21T04:33:25.709Z,8
2018-09-21T04:34:25.995Z,8
2018-09-21T04:35:25.711Z,12
2018-09-21T04:36:25.950Z,16
2018-09-21T04:37:25.681Z,16
2018-09-21T04:38:25.681Z,20
2018-09-21T04:39:25.930Z,28
2018-09-21T04:40:25.920Z,32
2018-09-21T04:41:25.660Z,36
2018-09-21T04:42:25.659Z,44
2018-09-21T04:43:25.940Z,56
2018-09-21T04:44:25.647Z,68
2018-09-21T04:45:25.645Z,76
2018-09-21T04:46:25.904Z,92
2018-09-21T04:47:25.895Z,104
2018-09-21T04:48:25.630Z,116
2018-09-21T04:49:25.877Z,128
2018-09-21T04:50:25.619Z,144
2018-09-21T04:51:25.614Z,164
2018-09-21T04:52:26.080Z,184
2018-09-21T04:53:25.605Z,208
2018-09-21T04:54:25.610Z,228
2018-09-21T04:55:25.857Z,244
2018-09-21T04:56:25.592Z,260
2018-09-21T04:57:25.585Z,272
2018-09-21T04:58:25.843Z,284
2018-09-21T04:59:25.582Z,296
2018-09-21T05:00:25.833Z,308
2018-09-21T05:01:25.574Z,332
2018-09-21T05:02:25.823Z,356
2018-09-21T05:03:25.820Z,388
2018-09-21T05:04:25.914Z,420
2018-09-21T05:05:25.559Z,444
2018-09-21T05:06:25.850Z,476
2018-09-21T05:07:25.541Z,504
2018-09-21T05:08:25.538Z,540
2018-09-21T05:09:25.788Z,572
2018-09-21T05:10:25.785Z,604
2018-09-21T05:11:25.526Z,636
2018-09-21T05:12:25.524Z,668
2018-09-21T05:13:25.767Z,700
2018-09-21T05:14:25.773Z,728
2018-09-21T05:15:25.775Z,764
2018-09-21T05:16:25.504Z,796
2018-09-21T05:17:25.500Z,824
2018-09-21T05:18:25.748Z,852
2018-09-21T05:19:25.485Z,872
2018-09-21T05:20:25.740Z,896
2018-09-21T05:21:25.483Z,928
2018-09-21T05:22:25.735Z,952
2018-09-21T05:23:25.733Z,988
2018-09-21T05:24:25.761Z,1024
2018-09-21T05:25:25.716Z,1060
2018-09-21T05:26:25.719Z,1096
2018-09-21T05:27:25.718Z,1136
2018-09-21T05:28:25.697Z,1184
2018-09-21T05:29:25.701Z,1228
2018-09-21T05:30:25.186Z,1276
2018-09-21T05:31:25.703Z,1312
2018-09-21T05:32:25.438Z,1344
2018-09-21T05:33:25.434Z,1348
2018-09-21T05:34:25.288Z,1360
2018-09-21T05:35:24.903Z,1376
2018-09-21T05:36:25.675Z,1412
2018-09-21T05:37:25.669Z,1428
2018-09-21T05:38:25.404Z,1448
2018-09-21T05:39:25.500Z,1456
2018-09-21T05:40:25.651Z,1472
2018-09-21T05:41:25.650Z,1492
2018-09-21T05:42:25.390Z,1524
2018-09-21T05:43:25.149Z,1572
2018-09-21T05:44:25.636Z,1608
2018-09-21T05:45:25.634Z,1612
2018-09-21T05:46:25.368Z,1592
2018-09-21T05:47:25.631Z,1576
2018-09-21T05:48:25.358Z,1584
2018-09-21T05:49:25.623Z,1620
2018-09-21T05:50:25.358Z,1660
2018-09-21T05:51:25.604Z,1664
2018-09-21T05:52:25.613Z,1692
2018-09-21T05:53:25.083Z,1740
2018-09-21T05:54:25.337Z,1776
2018-09-21T05:55:25.330Z,1816
2018-09-21T05:56:25.657Z,1880
2018-09-21T05:57:25.589Z,1976
2018-09-21T05:58:25.063Z,2064
2018-09-21T05:59:25.575Z,2148
2018-09-21T06:00:25.571Z,2224
2018-09-21T06:01:25.576Z,2296
2018-09-21T06:02:25.490Z,2352
2018-09-21T06:03:25.556Z,2352
2018-09-21T06:04:25.561Z,2316
2018-09-21T06:05:25.299Z,2320
2018-09-21T06:06:25.292Z,2352
2018-09-21T06:07:25.547Z,2404
2018-09-21T06:08:25.548Z,2448
2018-09-21T06:09:25.538Z,2484
2018-09-21T06:10:25.549Z,2460
2018-09-21T06:11:25.538Z,2396
2018-09-21T06:12:25.520Z,2384
2018-09-21T06:13:25.530Z,2372
2018-09-21T06:14:25.534Z,2412
2018-09-21T06:15:25.512Z,2468
2018-09-21T06:16:25.514Z,2548
2018-09-21T06:17:25.503Z,2632
2018-09-21T06:18:25.508Z,2660
2018-09-21T06:19:25.659Z,2636
2018-09-21T06:20:25.502Z,2596
2018-09-21T06:21:25.235Z,2624
2018-09-21T06:22:25.490Z,2708
2018-09-21T06:23:25.484Z,2796
2018-09-21T06:24:25.225Z,2840
2018-09-21T06:25:25.223Z,2876
2018-09-21T06:26:25.474Z,2904
2018-09-21T06:27:25.471Z,2924
2018-09-21T06:28:25.473Z,2924
2018-09-21T06:29:25.463Z,2920
2018-09-21T06:30:25.204Z,2896
2018-09-21T06:31:25.452Z,2860
2018-09-21T06:32:25.454Z,2812
2018-09-21T06:33:24.940Z,2836
2018-09-21T06:34:24.935Z,2884
2018-09-21T06:35:25.443Z,2920
2018-09-21T06:36:25.439Z,2876
2018-09-21T06:37:25.182Z,2920
2018-09-21T06:38:25.433Z,3036
2018-09-21T06:39:25.181Z,3156
2018-09-21T06:40:24.915Z,3292
2018-09-21T06:41:25.428Z,3404
2018-09-21T06:42:24.909Z,3452
2018-09-21T06:43:25.165Z,3620
2018-09-21T06:44:25.273Z,3672
2018-09-21T06:45:25.424Z,3724
2018-09-21T06:46:25.412Z,3844
2018-09-21T06:47:25.541Z,3932
2018-09-21T06:48:25.405Z,4076
2018-09-21T06:49:25.402Z,4132
2018-09-21T06:50:25.140Z,4044
2018-09-21T06:51:25.393Z,4188
2018-09-21T06:52:25.387Z,4280
2018-09-21T06:53:24.873Z,4356
2018-09-21T06:54:25.392Z,4404
2018-09-21T06:55:25.385Z,4448
2018-09-21T06:56:25.377Z,4548
2018-09-21T06:57:25.119Z,4620
2018-09-21T06:58:25.117Z,4664
2018-09-21T06:59:25.376Z,4676
2018-09-21T07:00:25.401Z,4656
2018-09-21T07:01:25.603Z,4580
2018-09-21T07:02:25.108Z,4644
2018-09-21T07:03:25.354Z,4752
2018-09-21T07:04:25.357Z,4604
2018-09-21T07:05:25.099Z,4624
2018-09-21T07:06:25.105Z,4592
2018-09-21T07:07:25.350Z,4500
2018-09-21T07:08:25.345Z,4496
2018-09-21T07:09:25.086Z,4624
2018-09-21T07:10:24.884Z,4648
2018-09-21T07:11:25.339Z,4696
2018-09-21T07:12:25.338Z,4764
2018-09-21T07:13:25.083Z,4784
2018-09-21T07:14:25.334Z,4804
2018-09-21T07:15:25.069Z,4820
2018-09-21T07:16:25.328Z,4768
2018-09-21T07:17:24.811Z,4660
2018-09-21T07:18:25.326Z,4556
2018-09-21T07:19:25.329Z,4544
2018-09-21T07:20:25.064Z,4492
2018-09-21T07:21:25.060Z,4432
2018-09-21T07:22:25.055Z,4352
2018-09-21T07:23:25.311Z,4084
2018-09-21T07:24:25.317Z,3828
2018-09-21T07:25:25.056Z,3540
2018-09-21T07:26:25.307Z,3420
2018-09-21T07:27:25.307Z,3296
2018-09-21T07:28:25.052Z,3336
2018-09-21T07:29:25.046Z,3404
2018-09-21T07:30:25.044Z,3436
2018-09-21T07:31:25.747Z,3460
2018-09-21T07:32:25.036Z,3388
2018-09-21T07:33:24.783Z,3164
2018-09-21T07:34:25.036Z,3056
2018-09-21T07:35:25.045Z,3168
2018-09-21T07:36:25.292Z,3244
2018-09-21T07:37:25.056Z,3344
2018-09-21T07:38:25.284Z,3400
2018-09-21T07:39:25.041Z,3380
2018-09-21T07:40:25.040Z,3424
2018-09-21T07:41:25.282Z,3356
2018-09-21T07:42:25.275Z,3264
2018-09-21T07:43:25.282Z,3296
2018-09-21T07:44:25.407Z,3288
2018-09-21T07:45:25.279Z,3180
2018-09-21T07:46:25.274Z,3320
2018-09-21T07:47:25.268Z,3320
2018-09-21T07:48:25.268Z,3308
2018-09-21T07:49:25.011Z,3644
2018-09-21T07:50:24.818Z,3508
2018-09-21T07:51:25.269Z,3512
2018-09-21T07:52:25.005Z,3536
2018-09-21T07:53:25.257Z,3584
2018-09-21T07:54:25.190Z,3552
2018-09-21T07:55:25.258Z,3552
2018-09-21T07:56:24.992Z,3720
2018-09-21T07:57:25.259Z,3864
2018-09-21T07:58:24.741Z,3952
2018-09-21T07:59:25.255Z,4056
2018-09-21T08:00:24.739Z,4228
2018-09-21T08:01:25.254Z,4384
2018-09-21T08:02:24.994Z,4500
2018-09-21T08:03:25.254Z,4632
2018-09-21T08:04:24.986Z,4604
2018-09-21T08:05:25.044Z,4500
2018-09-21T08:06:24.733Z,4688
2018-09-21T08:07:25.569Z,4972
2018-09-21T08:08:24.984Z,4960
2018-09-21T08:09:25.240Z,4856
2018-09-21T08:10:24.987Z,4648
2018-09-21T08:11:24.984Z,4648
2018-09-21T08:12:25.242Z,4496
2018-09-21T08:13:24.975Z,4476
2018-09-21T08:14:25.241Z,4368
2018-09-21T08:15:25.229Z,4240
2018-09-21T08:16:25.232Z,4312
2018-09-21T08:17:25.229Z,4136
2018-09-21T08:18:24.973Z,4172
2018-09-21T08:19:25.375Z,4032
2018-09-21T08:20:25.233Z,3972
2018-09-21T08:21:25.231Z,4128
2018-09-21T08:22:25.229Z,4040
2018-09-21T08:23:24.715Z,3968
2018-09-21T08:24:25.230Z,3872
2018-09-21T08:25:25.015Z,3848
2018-09-21T08:26:24.974Z,3872
2018-09-21T08:27:24.966Z,3812
2018-09-21T08:28:25.220Z,3608
2018-09-21T08:29:25.225Z,3340
2018-09-21T08:30:25.236Z,3276
2018-09-21T08:31:25.158Z,3284
2018-09-21T08:32:24.969Z,3188
2018-09-21T08:33:25.146Z,3296
2018-09-21T08:34:25.230Z,3212
2018-09-21T08:35:25.223Z,2928
2018-09-21T08:36:25.227Z,2776
2018-09-21T08:37:26.014Z,2864
2018-09-21T08:38:25.222Z,3092
2018-09-21T08:39:25.225Z,2992
2018-09-21T08:40:24.966Z,3188
2018-09-21T08:41:24.972Z,3288
2018-09-21T08:42:25.218Z,3408
2018-09-21T08:43:25.264Z,3408
2018-09-21T08:44:25.223Z,3428
2018-09-21T08:45:25.008Z,3428
2018-09-21T08:46:25.222Z,3432
2018-09-21T08:47:24.971Z,3444
2018-09-21T08:48:24.957Z,3484
2018-09-21T08:49:24.960Z,3500
2018-09-21T08:50:25.263Z,3540
2018-09-21T08:51:25.227Z,3584
2018-09-21T08:52:24.699Z,3612
2018-09-21T08:53:25.215Z,3628
2018-09-21T08:54:25.232Z,3656
2018-09-21T08:55:24.961Z,3692
2018-09-21T08:56:24.710Z,3716
2018-09-21T08:57:25.219Z,3760
2018-09-21T08:58:25.218Z,3812
2018-09-21T08:59:25.213Z,3828
2018-09-21T09:00:24.711Z,3848
2018-09-21T09:01:25.273Z,3900
2018-09-21T09:02:25.224Z,4160
2018-09-21T09:03:25.461Z,4204
2018-09-21T09:04:24.963Z,4412
2018-09-21T09:05:24.982Z,4596
2018-09-21T09:06:24.973Z,4648
2018-09-21T09:07:25.222Z,4776
2018-09-21T09:08:24.959Z,5056
2018-09-21T09:09:25.222Z,5040
2018-09-21T09:10:25.229Z,5572
2018-09-21T09:11:24.965Z,5892
2018-09-21T09:12:24.967Z,6076
2018-09-21T09:13:25.224Z,6240
2018-09-21T09:14:25.223Z,6440
2018-09-21T09:15:25.233Z,6432
2018-09-21T09:16:25.025Z,6328
2018-09-21T09:17:24.980Z,6336
2018-09-21T09:18:24.970Z,6160
2018-09-21T09:19:24.973Z,5892
2018-09-21T09:20:24.718Z,5656
2018-09-21T09:21:25.233Z,5472
2018-09-21T09:22:24.718Z,5548
2018-09-21T09:23:25.433Z,5592
2018-09-21T09:24:25.268Z,5540
2018-09-21T09:25:25.247Z,5424
2018-09-21T09:26:25.017Z,5528
2018-09-21T09:27:25.243Z,5468
2018-09-21T09:28:24.990Z,5476
2018-09-21T09:29:24.752Z,5616
2018-09-21T09:30:24.993Z,5744
2018-09-21T09:31:25.246Z,5912
2018-09-21T09:32:24.989Z,6240
2018-09-21T09:33:25.250Z,6696
2018-09-21T09:34:25.001Z,7072
2018-09-21T09:35:25.255Z,7572
2018-09-21T09:36:24.996Z,8148
2018-09-21T09:37:25.261Z,8780
2018-09-21T09:38:25.263Z,9060
2018-09-21T09:39:24.745Z,9360
2018-09-21T09:40:25.004Z,9948
2018-09-21T09:41:25.270Z,10388
2018-09-21T09:42:25.010Z,10648
2018-09-21T09:43:25.715Z,10716
2018-09-21T09:44:25.263Z,10956
2018-09-21T09:45:25.264Z,11216
2018-09-21T09:46:25.014Z,11148
2018-09-21T09:47:25.276Z,11328
2018-09-21T09:48:25.607Z,11328
2018-09-21T09:49:25.099Z,11032
2018-09-21T09:50:25.026Z,10848
2018-09-21T09:51:25.021Z,10728
2018-09-21T09:52:25.283Z,10628
2018-09-21T09:53:25.286Z,10572
2018-09-21T09:54:25.031Z,10504
2018-09-21T09:55:25.041Z,10500
2018-09-21T09:56:25.294Z,10532
2018-09-21T09:57:25.297Z,10580
2018-09-21T09:58:25.303Z,10632
2018-09-21T09:59:25.040Z,10636
2018-09-21T10:00:25.296Z,10568
2018-09-21T10:01:25.305Z,10608
2018-09-21T10:02:25.047Z,10792
2018-09-21T10:03:25.353Z,10960
2018-09-21T10:04:25.304Z,11092
2018-09-21T10:05:25.064Z,11212
2018-09-21T10:06:24.544Z,11432
2018-09-21T10:07:25.321Z,11552
2018-09-21T10:08:25.322Z,11656
2018-09-21T10:09:25.327Z,11716
2018-09-21T10:10:25.546Z,11668
2018-09-21T10:11:25.330Z,11604
2018-09-21T10:12:25.336Z,11476
2018-09-21T10:13:25.083Z,11304
2018-09-21T10:14:25.332Z,11164
2018-09-21T10:15:25.077Z,11004
2018-09-21T10:16:25.483Z,10796
2018-09-21T10:17:25.095Z,10616
2018-09-21T10:18:25.352Z,10436
2018-09-21T10:19:25.091Z,10232
2018-09-21T10:20:25.362Z,10064
2018-09-21T10:21:25.095Z,9980
2018-09-21T10:22:25.358Z,9980
2018-09-21T10:23:25.106Z,10104
2018-09-21T10:24:24.847Z,10332
2018-09-21T10:25:25.367Z,10564
2018-09-21T10:26:25.120Z,10712
2018-09-21T10:27:26.230Z,10804
2018-09-21T10:28:25.980Z,10864
2018-09-21T10:29:25.185Z,10980
2018-09-21T10:30:25.157Z,11120
2018-09-21T10:31:25.152Z,11292
2018-09-21T10:32:25.128Z,11436
2018-09-21T10:33:25.473Z,11536
2018-09-21T10:34:25.401Z,11600
2018-09-21T10:35:25.681Z,11584
2018-09-21T10:36:25.149Z,11668
2018-09-21T10:37:25.147Z,11796
2018-09-21T10:38:25.151Z,11716
2018-09-21T10:39:25.048Z,11672
2018-09-21T10:40:25.328Z,11760
2018-09-21T10:41:25.415Z,12048
2018-09-21T10:42:25.757Z,12100
2018-09-21T10:43:25.423Z,12004
2018-09-21T10:44:25.165Z,11876
2018-09-21T10:45:25.424Z,11812
2018-09-21T10:46:25.177Z,11804
2018-09-21T10:47:25.175Z,12012
2018-09-21T10:48:25.170Z,11828
2018-09-21T10:49:25.176Z,11492
2018-09-21T10:50:25.440Z,11068
2018-09-21T10:51:25.450Z,10580
2018-09-21T10:52:25.437Z,10328
2018-09-21T10:53:25.458Z,10244
2018-09-21T10:54:25.445Z,10220
2018-09-21T10:55:25.202Z,10292
2018-09-21T10:56:25.453Z,10508
2018-09-21T10:57:25.199Z,10560
2018-09-21T10:58:25.205Z,10616
2018-09-21T10:59:25.469Z,10648
2018-09-21T11:00:25.594Z,10820
2018-09-21T11:01:25.476Z,10904
2018-09-21T11:02:25.225Z,10912
2018-09-21T11:03:25.221Z,10948
2018-09-21T11:04:25.503Z,11056
2018-09-21T11:05:25.495Z,11272
2018-09-21T11:06:25.495Z,11424
2018-09-21T11:07:25.676Z,11964
2018-09-21T11:08:24.982Z,12096
2018-09-21T11:09:25.496Z,12244
2018-09-21T11:10:25.508Z,12000
2018-09-21T11:11:25.504Z,11920
2018-09-21T11:12:25.250Z,11264
2018-09-21T11:13:25.548Z,11304
2018-09-21T11:14:25.003Z,10988
2018-09-21T11:15:25.516Z,10972
2018-09-21T11:16:25.530Z,10836
2018-09-21T11:17:25.011Z,10584
2018-09-21T11:18:25.265Z,10272
2018-09-21T11:19:25.276Z,10124
2018-09-21T11:20:25.285Z,9848
2018-09-21T11:21:25.283Z,9500
2018-09-21T11:22:25.539Z,9436
2018-09-21T11:23:25.602Z,9580
2018-09-21T11:24:25.550Z,9872
2018-09-21T11:25:25.307Z,10552
2018-09-21T11:26:25.306Z,10704
2018-09-21T11:27:25.567Z,10124
2018-09-21T11:28:25.311Z,9564
2018-09-21T11:29:25.586Z,9960
2018-09-21T11:30:25.069Z,9736
2018-09-21T11:31:25.584Z,10208
2018-09-21T11:32:25.584Z,10176
2018-09-21T11:33:25.339Z,10160
2018-09-21T11:34:25.585Z,10304
2018-09-21T11:35:25.604Z,10476
2018-09-21T11:36:25.086Z,9936
2018-09-21T11:37:25.600Z,9232
2018-09-21T11:38:25.355Z,8816
2018-09-21T11:39:25.354Z,8420
2018-09-21T11:40:25.376Z,8112
2018-09-21T11:41:25.110Z,7428
2018-09-21T11:42:25.370Z,7416
2018-09-21T11:43:25.116Z,7956
2018-09-21T11:44:25.378Z,8028
2018-09-21T11:45:25.127Z,8648
2018-09-21T11:46:25.644Z,9228
2018-09-21T11:47:26.504Z,9672
2018-09-21T11:48:25.655Z,10148
2018-09-21T11:49:25.399Z,10212
2018-09-21T11:50:25.410Z,10076
2018-09-21T11:51:25.667Z,9664
2018-09-21T11:52:25.658Z,9628
2018-09-21T11:53:25.673Z,10332
2018-09-21T11:54:25.667Z,10680
2018-09-21T11:55:25.164Z,10648
2018-09-21T11:56:25.168Z,10448
2018-09-21T11:57:25.685Z,10236
2018-09-21T11:58:25.432Z,10096
2018-09-21T11:59:25.680Z,9928
2018-09-21T12:00:25.696Z,9768
2018-09-21T12:01:25.694Z,9640
2018-09-21T12:02:25.445Z,9480
2018-09-21T12:03:25.456Z,9572
2018-09-21T12:04:25.452Z,9924
2018-09-21T12:05:25.721Z,10304
2018-09-21T12:06:25.712Z,10436
2018-09-21T12:07:25.727Z,10188
2018-09-21T12:08:25.720Z,10004
2018-09-21T12:09:25.724Z,10060
2018-09-21T12:10:25.560Z,10268
2018-09-21T12:11:25.481Z,10468
2018-09-21T12:12:25.758Z,10448
2018-09-21T12:13:25.741Z,10496
2018-09-21T12:14:25.748Z,10636
2018-09-21T12:15:25.488Z,10772
2018-09-21T12:16:25.502Z,10968
2018-09-21T12:17:25.497Z,10648
2018-09-21T12:18:25.502Z,9908
2018-09-21T12:19:25.767Z,9356
2018-09-21T12:20:25.000Z,9168
2018-09-21T12:21:25.766Z,9268
2018-09-21T12:22:25.552Z,9208
2018-09-21T12:23:25.524Z,9064
2018-09-21T12:24:25.525Z,8740
2018-09-21T12:25:25.787Z,8420
2018-09-21T12:26:25.537Z,8256
2018-09-21T12:27:25.790Z,8356
2018-09-21T12:28:25.843Z,8592
2018-09-21T12:29:25.798Z,8888
2018-09-21T12:30:25.834Z,8536
2018-09-21T12:31:25.805Z,8304
2018-09-21T12:32:25.288Z,8344
2018-09-21T12:33:25.556Z,7788
2018-09-21T12:34:25.807Z,7532
2018-09-21T12:35:25.560Z,7644
2018-09-21T12:36:26.146Z,7828
2018-09-21T12:37:25.560Z,7912
2018-09-21T12:38:25.608Z,7924
2018-09-21T12:39:25.830Z,7728
2018-09-21T12:40:25.833Z,7652
2018-09-21T12:41:25.829Z,7564
2018-09-21T12:42:26.022Z,7384
2018-09-21T12:43:25.851Z,7620
2018-09-21T12:44:25.622Z,7720
2018-09-21T12:45:25.602Z,7740
2018-09-21T12:46:25.590Z,7544
2018-09-21T12:47:25.592Z,7480
2018-09-21T12:48:25.598Z,7420
2018-09-21T12:49:25.860Z,7380
2018-09-21T12:50:26.113Z,7440
2018-09-21T12:51:25.610Z,7656
2018-09-21T12:52:25.667Z,7736
2018-09-21T12:53:25.872Z,7580
2018-09-21T12:54:25.617Z,7192
2018-09-21T12:55:25.618Z,6576
2018-09-21T12:56:25.632Z,6132
2018-09-21T12:57:25.886Z,6516
2018-09-21T12:58:26.067Z,5520
2018-09-21T12:59:25.678Z,4976
2018-09-21T13:00:25.637Z,5828
2018-09-21T13:01:25.392Z,5916
2018-09-21T13:02:25.639Z,4640
2018-09-21T13:03:25.650Z,4952
2018-09-21T13:04:25.646Z,7904
2018-09-21T13:05:25.907Z,9800
2018-09-21T13:06:26.285Z,11684
2018-09-21T13:07:25.961Z,11920
2018-09-21T13:08:25.914Z,8932
2018-09-21T13:09:25.145Z,7840
2018-09-21T13:10:25.664Z,9568
2018-09-21T13:11:25.934Z,10720
2018-09-21T13:12:25.919Z,11160
2018-09-21T13:13:25.674Z,11536
2018-09-21T13:14:26.298Z,11152
2018-09-21T13:15:25.678Z,10356
2018-09-21T13:16:25.682Z,9452
2018-09-21T13:17:25.937Z,8808
2018-09-21T13:18:25.934Z,8760
2018-09-21T13:19:25.686Z,8276
2018-09-21T13:20:25.695Z,8308
2018-09-21T13:21:25.956Z,8308
2018-09-21T13:22:25.694Z,7636
2018-09-21T13:23:25.961Z,7232
2018-09-21T13:24:25.959Z,7172
2018-09-21T13:25:25.701Z,6916
2018-09-21T13:26:25.702Z,6760
2018-09-21T13:27:25.962Z,6756
2018-09-21T13:28:25.712Z,6772
2018-09-21T13:29:25.973Z,6816
2018-09-21T13:30:25.709Z,6768
2018-09-21T13:31:25.713Z,7280
2018-09-21T13:32:25.993Z,7720
2018-09-21T13:33:25.971Z,8600
2018-09-21T13:34:25.726Z,9196
2018-09-21T13:35:25.988Z,9184
2018-09-21T13:36:25.469Z,8852
2018-09-21T13:37:25.731Z,8720
2018-09-21T13:38:25.989Z,8648
2018-09-21T13:39:25.743Z,8368
2018-09-21T13:40:26.004Z,8408
2018-09-21T13:41:25.997Z,8112
2018-09-21T13:42:26.005Z,7800
2018-09-21T13:43:26.003Z,7700
2018-09-21T13:44:25.749Z,7612